Pagina principale
METAR-TAF:

METAR-TAF

Aeroporti :

Aeroporto di Calvi Sainte-Catherine

Calvi, Francia

latitudine: 42-32N, longitudine: 008-48E, altezza: 64 m

Osservazione

Il bollettino è stato emesso 28 minuti fa, alle 03:00 UTC
Vento 2 kt da direzioni variabili
Temperature 10°C
Umidità 93%
Pressione 1020 hPa
Visibilità 10 km o più
pioviggine debole

METAR: LFKC 250300Z AUTO VRB02KT 9999 -DZ FEW020/// BKN026/// BKN033/// ///CB 10/09 Q1020

Ora: 04:28 (03:28 UTC)

Previsione

Il bollettino è stato emesso 1 ora e 28 minuti fa, alle 02:00 UTC
Previsione valida dal 25 alle 03 UTC al 26 alle 03 UTC
Vento 6 kt da sud
Visibilità 10 km o più
Poco nuvoloso ad un'altezza di 1500 ft, Cumulo congesto.
Nubi sparse ad un'altezza di 2000 ft
Nuvoloso ad un'altezza di 3000 ft
Evoluzione graduale
dal 25 alle 15 UTC al 25 alle 18 UTC

TAF: LFKC 250200Z 2503/2603 18006KT 9999 FEW015TCU SCT020 BKN030 TX14/2512Z TN07/2521Z BECMG 2515/2518 NSC

Osservazioni e previsioni meteorologiche di più di 4000 aeroporti (messaggi METAR e TAF).

Le stazioni disponibili sono rappresentate dai dischi gialli e rossi sulla carta.

Puntare il mouse per vedere il nome della stazione.

Clicca sopra per visualizzare le osservazioni e previsioni meteorologiche.

Per cambiare la mappa : fare clic sui pulsanti verdi con una croce nera per ingrandire, il pulsante verde con un trattino per diminuire, o sulla freccia verde per le mappe adiacenti.


METAR-TAF: